sensor_id;sensor_type;location;lat;lon;timestamp;P1;durP1;ratioP1;P2;durP2;ratioP2
422;SDS011;198;48.752;9.180;2022-12-07T00:01:08;9.00;;;4.93;;
422;SDS011;198;48.752;9.180;2022-12-07T00:03:34;11.70;;;5.60;;
422;SDS011;198;48.752;9.180;2022-12-07T00:06:01;11.33;;;5.03;;
422;SDS011;198;48.752;9.180;2022-12-07T00:08:28;14.80;;;6.30;;
422;SDS011;198;48.752;9.180;2022-12-07T00:10:55;7.57;;;4.60;;
422;SDS011;198;48.752;9.180;2022-12-07T00:13:25;13.43;;;5.93;;
422;SDS011;198;48.752;9.180;2022-12-07T00:15:50;11.60;;;5.40;;
422;SDS011;198;48.752;9.180;2022-12-07T00:18:16;11.90;;;5.87;;
422;SDS011;198;48.752;9.180;2022-12-07T00:20:41;13.27;;;5.87;;
422;SDS011;198;48.752;9.180;2022-12-07T00:23:07;17.23;;;5.70;;
422;SDS011;198;48.752;9.180;2022-12-07T00:25:32;15.00;;;5.30;;
422;SDS011;198;48.752;9.180;2022-12-07T00:27:58;14.27;;;5.30;;
422;SDS011;198;48.752;9.180;2022-12-07T00:30:23;12.17;;;6.30;;
422;SDS011;198;48.752;9.180;2022-12-07T00:32:49;9.73;;;5.50;;
422;SDS011;198;48.752;9.180;2022-12-07T00:35:15;13.40;;;5.83;;
422;SDS011;198;48.752;9.180;2022-12-07T00:37:40;10.37;;;5.60;;
422;SDS011;198;48.752;9.180;2022-12-07T00:40:06;15.60;;;6.33;;
422;SDS011;198;48.752;9.180;2022-12-07T00:42:32;12.30;;;6.00;;
422;SDS011;198;48.752;9.180;2022-12-07T00:44:57;16.07;;;6.50;;
422;SDS011;198;48.752;9.180;2022-12-07T00:47:23;11.60;;;6.10;;
422;SDS011;198;48.752;9.180;2022-12-07T00:49:48;12.43;;;6.77;;
422;SDS011;198;48.752;9.180;2022-12-07T00:52:14;11.07;;;5.57;;
422;SDS011;198;48.752;9.180;2022-12-07T00:54:40;20.87;;;7.40;;
422;SDS011;198;48.752;9.180;2022-12-07T00:57:05;12.90;;;6.60;;
422;SDS011;198;48.752;9.180;2022-12-07T00:59:31;11.83;;;6.63;;
422;SDS011;198;48.752;9.180;2022-12-07T01:01:57;14.93;;;6.60;;
422;SDS011;198;48.752;9.180;2022-12-07T01:04:22;10.40;;;6.50;;
422;SDS011;198;48.752;9.180;2022-12-07T01:06:48;12.53;;;5.83;;
422;SDS011;198;48.752;9.180;2022-12-07T01:09:13;13.77;;;6.50;;
422;SDS011;198;48.752;9.180;2022-12-07T01:11:39;20.33;;;7.13;;
422;SDS011;198;48.752;9.180;2022-12-07T01:14:05;9.90;;;6.20;;
422;SDS011;198;48.752;9.180;2022-12-07T01:16:31;15.90;;;6.87;;
422;SDS011;198;48.752;9.180;2022-12-07T01:18:57;15.13;;;7.10;;
422;SDS011;198;48.752;9.180;2022-12-07T01:21:28;17.43;;;8.10;;
422;SDS011;198;48.752;9.180;2022-12-07T01:23:56;16.70;;;6.60;;
422;SDS011;198;48.752;9.180;2022-12-07T01:26:23;16.93;;;7.17;;
422;SDS011;198;48.752;9.180;2022-12-07T01:28:49;12.23;;;6.23;;
422;SDS011;198;48.752;9.180;2022-12-07T01:31:17;15.10;;;6.63;;
422;SDS011;198;48.752;9.180;2022-12-07T01:33:46;14.03;;;5.93;;
422;SDS011;198;48.752;9.180;2022-12-07T01:38:56;13.57;;;6.13;;
422;SDS011;198;48.752;9.180;2022-12-07T01:41:24;13.27;;;5.70;;
422;SDS011;198;48.752;9.180;2022-12-07T01:46:32;14.80;;;6.40;;
422;SDS011;198;48.752;9.180;2022-12-07T01:48:57;22.43;;;6.43;;
422;SDS011;198;48.752;9.180;2022-12-07T01:51:24;10.70;;;5.83;;
422;SDS011;198;48.752;9.180;2022-12-07T01:53:51;16.43;;;6.83;;
422;SDS011;198;48.752;9.180;2022-12-07T01:56:18;19.30;;;9.07;;
422;SDS011;198;48.752;9.180;2022-12-07T01:58:47;16.43;;;7.77;;
422;SDS011;198;48.752;9.180;2022-12-07T02:01:14;16.53;;;6.00;;
422;SDS011;198;48.752;9.180;2022-12-07T02:03:40;11.87;;;6.37;;
422;SDS011;198;48.752;9.180;2022-12-07T02:06:07;14.53;;;6.53;;
422;SDS011;198;48.752;9.180;2022-12-07T02:08:35;16.10;;;6.67;;
422;SDS011;198;48.752;9.180;2022-12-07T02:11:02;17.57;;;7.40;;
422;SDS011;198;48.752;9.180;2022-12-07T02:13:30;11.87;;;6.50;;
422;SDS011;198;48.752;9.180;2022-12-07T02:16:05;15.13;;;6.80;;
422;SDS011;198;48.752;9.180;2022-12-07T02:18:57;12.20;;;6.30;;
422;SDS011;198;48.752;9.180;2022-12-07T02:21:29;15.23;;;7.57;;
422;SDS011;198;48.752;9.180;2022-12-07T02:29:47;22.93;;;6.33;;
422;SDS011;198;48.752;9.180;2022-12-07T02:34:52;17.63;;;6.53;;
422;SDS011;198;48.752;9.180;2022-12-07T02:40:25;16.50;;;6.87;;
422;SDS011;198;48.752;9.180;2022-12-07T02:43:02;18.60;;;6.73;;
422;SDS011;198;48.752;9.180;2022-12-07T02:45:36;12.13;;;5.63;;
422;SDS011;198;48.752;9.180;2022-12-07T02:48:05;18.03;;;8.03;;
422;SDS011;198;48.752;9.180;2022-12-07T02:50:33;12.23;;;5.43;;
422;SDS011;198;48.752;9.180;2022-12-07T02:52:59;13.63;;;6.00;;
422;SDS011;198;48.752;9.180;2022-12-07T02:55:26;17.40;;;6.73;;
422;SDS011;198;48.752;9.180;2022-12-07T03:00:52;10.40;;;5.70;;
422;SDS011;198;48.752;9.180;2022-12-07T03:03:28;15.53;;;7.03;;
422;SDS011;198;48.752;9.180;2022-12-07T03:09:17;12.23;;;5.80;;
422;SDS011;198;48.752;9.180;2022-12-07T03:11:49;16.97;;;6.30;;
422;SDS011;198;48.752;9.180;2022-12-07T03:14:29;12.90;;;6.47;;
422;SDS011;198;48.752;9.180;2022-12-07T03:17:03;11.20;;;6.00;;
422;SDS011;198;48.752;9.180;2022-12-07T03:19:39;12.10;;;5.50;;
422;SDS011;198;48.752;9.180;2022-12-07T03:22:07;17.73;;;6.93;;
422;SDS011;198;48.752;9.180;2022-12-07T03:24:36;15.43;;;7.17;;
422;SDS011;198;48.752;9.180;2022-12-07T03:27:08;11.93;;;7.07;;
422;SDS011;198;48.752;9.180;2022-12-07T03:29:39;15.50;;;6.53;;
422;SDS011;198;48.752;9.180;2022-12-07T03:35:10;12.73;;;5.97;;
422;SDS011;198;48.752;9.180;2022-12-07T03:37:51;18.77;;;6.80;;
422;SDS011;198;48.752;9.180;2022-12-07T03:43:02;17.00;;;6.50;;
422;SDS011;198;48.752;9.180;2022-12-07T03:45:36;13.60;;;6.57;;
422;SDS011;198;48.752;9.180;2022-12-07T03:48:22;12.83;;;6.13;;
422;SDS011;198;48.752;9.180;2022-12-07T03:53:40;15.17;;;6.80;;
422;SDS011;198;48.752;9.180;2022-12-07T03:56:11;13.70;;;7.30;;
422;SDS011;198;48.752;9.180;2022-12-07T03:58:37;14.00;;;6.80;;
422;SDS011;198;48.752;9.180;2022-12-07T04:01:04;16.00;;;7.40;;
422;SDS011;198;48.752;9.180;2022-12-07T04:03:29;14.50;;;6.50;;
422;SDS011;198;48.752;9.180;2022-12-07T04:05:55;17.60;;;6.97;;
422;SDS011;198;48.752;9.180;2022-12-07T04:08:21;10.47;;;6.03;;
422;SDS011;198;48.752;9.180;2022-12-07T04:10:46;15.43;;;6.53;;
422;SDS011;198;48.752;9.180;2022-12-07T04:13:12;15.23;;;6.20;;
422;SDS011;198;48.752;9.180;2022-12-07T04:15:37;15.00;;;6.80;;
422;SDS011;198;48.752;9.180;2022-12-07T04:18:03;16.40;;;5.90;;
422;SDS011;198;48.752;9.180;2022-12-07T04:20:28;15.30;;;6.87;;
422;SDS011;198;48.752;9.180;2022-12-07T04:22:54;17.00;;;6.57;;
422;SDS011;198;48.752;9.180;2022-12-07T04:25:19;18.40;;;7.13;;
422;SDS011;198;48.752;9.180;2022-12-07T04:27:45;14.73;;;6.10;;
422;SDS011;198;48.752;9.180;2022-12-07T04:30:11;11.13;;;5.90;;
422;SDS011;198;48.752;9.180;2022-12-07T04:32:37;14.57;;;5.70;;
422;SDS011;198;48.752;9.180;2022-12-07T04:35:03;12.03;;;5.50;;
422;SDS011;198;48.752;9.180;2022-12-07T04:37:29;12.17;;;5.33;;
422;SDS011;198;48.752;9.180;2022-12-07T04:39:54;31.33;;;6.37;;
422;SDS011;198;48.752;9.180;2022-12-07T04:42:20;12.33;;;6.33;;
422;SDS011;198;48.752;9.180;2022-12-07T04:44:45;15.73;;;6.30;;
422;SDS011;198;48.752;9.180;2022-12-07T04:47:11;15.70;;;5.93;;
422;SDS011;198;48.752;9.180;2022-12-07T04:49:36;9.30;;;5.13;;
422;SDS011;198;48.752;9.180;2022-12-07T04:52:02;15.23;;;6.07;;
422;SDS011;198;48.752;9.180;2022-12-07T04:54:27;11.17;;;4.47;;
422;SDS011;198;48.752;9.180;2022-12-07T04:56:53;7.90;;;2.93;;
422;SDS011;198;48.752;9.180;2022-12-07T04:59:18;4.33;;;3.07;;
422;SDS011;198;48.752;9.180;2022-12-07T05:01:44;8.53;;;3.77;;
422;SDS011;198;48.752;9.180;2022-12-07T05:04:09;5.50;;;3.20;;
422;SDS011;198;48.752;9.180;2022-12-07T05:06:35;11.43;;;4.03;;
422;SDS011;198;48.752;9.180;2022-12-07T05:09:01;7.53;;;3.30;;
422;SDS011;198;48.752;9.180;2022-12-07T05:11:27;8.07;;;4.27;;
422;SDS011;198;48.752;9.180;2022-12-07T05:14:07;5.70;;;3.30;;
422;SDS011;198;48.752;9.180;2022-12-07T05:16:38;6.30;;;3.27;;
422;SDS011;198;48.752;9.180;2022-12-07T05:19:04;6.23;;;3.43;;
422;SDS011;198;48.752;9.180;2022-12-07T05:21:30;9.27;;;3.47;;
422;SDS011;198;48.752;9.180;2022-12-07T05:23:55;6.97;;;3.73;;
422;SDS011;198;48.752;9.180;2022-12-07T05:26:21;8.50;;;3.97;;
422;SDS011;198;48.752;9.180;2022-12-07T05:28:53;4.60;;;2.93;;
422;SDS011;198;48.752;9.180;2022-12-07T05:31:21;5.67;;;3.57;;
422;SDS011;198;48.752;9.180;2022-12-07T05:33:48;7.90;;;3.23;;
422;SDS011;198;48.752;9.180;2022-12-07T05:36:13;5.33;;;2.80;;
422;SDS011;198;48.752;9.180;2022-12-07T05:38:39;3.00;;;2.57;;
422;SDS011;198;48.752;9.180;2022-12-07T05:41:06;5.27;;;3.10;;
422;SDS011;198;48.752;9.180;2022-12-07T05:43:32;7.77;;;3.33;;
422;SDS011;198;48.752;9.180;2022-12-07T05:45:58;5.30;;;3.23;;
422;SDS011;198;48.752;9.180;2022-12-07T05:48:24;8.50;;;4.03;;
422;SDS011;198;48.752;9.180;2022-12-07T05:50:51;4.63;;;3.13;;
422;SDS011;198;48.752;9.180;2022-12-07T05:53:17;7.40;;;4.20;;
422;SDS011;198;48.752;9.180;2022-12-07T05:55:43;5.83;;;3.50;;
422;SDS011;198;48.752;9.180;2022-12-07T05:58:09;8.27;;;3.77;;
422;SDS011;198;48.752;9.180;2022-12-07T06:00:56;9.30;;;4.40;;
422;SDS011;198;48.752;9.180;2022-12-07T06:03:22;11.57;;;4.20;;
422;SDS011;198;48.752;9.180;2022-12-07T06:05:48;9.10;;;4.40;;
422;SDS011;198;48.752;9.180;2022-12-07T06:08:13;6.60;;;3.97;;
422;SDS011;198;48.752;9.180;2022-12-07T06:10:40;7.57;;;4.10;;
422;SDS011;198;48.752;9.180;2022-12-07T06:13:06;8.70;;;4.80;;
422;SDS011;198;48.752;9.180;2022-12-07T06:15:32;8.90;;;4.83;;
422;SDS011;198;48.752;9.180;2022-12-07T06:18:00;11.10;;;5.67;;
422;SDS011;198;48.752;9.180;2022-12-07T06:20:25;9.90;;;4.87;;
422;SDS011;198;48.752;9.180;2022-12-07T06:22:50;7.20;;;4.20;;
422;SDS011;198;48.752;9.180;2022-12-07T06:25:16;5.43;;;3.50;;
422;SDS011;198;48.752;9.180;2022-12-07T06:27:41;13.00;;;5.13;;
422;SDS011;198;48.752;9.180;2022-12-07T06:30:07;10.43;;;4.40;;
422;SDS011;198;48.752;9.180;2022-12-07T06:32:33;12.43;;;4.60;;
422;SDS011;198;48.752;9.180;2022-12-07T06:35:00;9.53;;;4.50;;
422;SDS011;198;48.752;9.180;2022-12-07T06:37:26;7.80;;;4.70;;
422;SDS011;198;48.752;9.180;2022-12-07T06:39:51;10.47;;;4.77;;
422;SDS011;198;48.752;9.180;2022-12-07T06:42:17;8.13;;;4.17;;
422;SDS011;198;48.752;9.180;2022-12-07T06:44:42;11.23;;;4.23;;
422;SDS011;198;48.752;9.180;2022-12-07T06:47:08;10.87;;;4.47;;
422;SDS011;198;48.752;9.180;2022-12-07T06:49:34;20.93;;;4.50;;
422;SDS011;198;48.752;9.180;2022-12-07T06:51:59;6.80;;;4.00;;
422;SDS011;198;48.752;9.180;2022-12-07T06:54:25;10.50;;;4.93;;
422;SDS011;198;48.752;9.180;2022-12-07T06:56:50;17.67;;;4.90;;
422;SDS011;198;48.752;9.180;2022-12-07T06:59:16;10.50;;;4.70;;
422;SDS011;198;48.752;9.180;2022-12-07T07:01:41;7.90;;;4.33;;
422;SDS011;198;48.752;9.180;2022-12-07T07:04:07;15.13;;;4.43;;
422;SDS011;198;48.752;9.180;2022-12-07T07:06:32;11.13;;;4.23;;
422;SDS011;198;48.752;9.180;2022-12-07T07:08:58;18.53;;;6.30;;
422;SDS011;198;48.752;9.180;2022-12-07T07:11:24;18.60;;;5.03;;
422;SDS011;198;48.752;9.180;2022-12-07T07:13:49;11.50;;;5.40;;
422;SDS011;198;48.752;9.180;2022-12-07T07:16:15;9.87;;;4.90;;
422;SDS011;198;48.752;9.180;2022-12-07T07:18:40;8.53;;;4.33;;
422;SDS011;198;48.752;9.180;2022-12-07T07:21:06;9.37;;;4.43;;
422;SDS011;198;48.752;9.180;2022-12-07T07:23:31;9.80;;;4.60;;
422;SDS011;198;48.752;9.180;2022-12-07T07:25:57;10.67;;;5.20;;
422;SDS011;198;48.752;9.180;2022-12-07T07:28:22;12.07;;;5.47;;
422;SDS011;198;48.752;9.180;2022-12-07T07:30:48;10.87;;;5.03;;
422;SDS011;198;48.752;9.180;2022-12-07T07:33:14;9.80;;;5.03;;
422;SDS011;198;48.752;9.180;2022-12-07T07:35:40;21.43;;;5.57;;
422;SDS011;198;48.752;9.180;2022-12-07T07:38:06;9.23;;;4.00;;
422;SDS011;198;48.752;9.180;2022-12-07T07:40:32;10.97;;;4.93;;
422;SDS011;198;48.752;9.180;2022-12-07T07:42:58;11.83;;;4.23;;
422;SDS011;198;48.752;9.180;2022-12-07T07:45:24;21.37;;;5.87;;
422;SDS011;198;48.752;9.180;2022-12-07T07:47:51;19.33;;;4.60;;
422;SDS011;198;48.752;9.180;2022-12-07T07:50:17;11.60;;;5.07;;
422;SDS011;198;48.752;9.180;2022-12-07T07:52:43;8.37;;;4.00;;
422;SDS011;198;48.752;9.180;2022-12-07T07:55:09;12.73;;;5.60;;
422;SDS011;198;48.752;9.180;2022-12-07T07:57:36;14.37;;;5.20;;
422;SDS011;198;48.752;9.180;2022-12-07T08:00:06;10.30;;;5.60;;
422;SDS011;198;48.752;9.180;2022-12-07T08:02:34;12.77;;;5.23;;
422;SDS011;198;48.752;9.180;2022-12-07T08:04:59;11.10;;;5.13;;
422;SDS011;198;48.752;9.180;2022-12-07T08:07:26;9.83;;;5.03;;
422;SDS011;198;48.752;9.180;2022-12-07T08:09:52;10.97;;;4.90;;
422;SDS011;198;48.752;9.180;2022-12-07T08:12:17;7.50;;;4.47;;
422;SDS011;198;48.752;9.180;2022-12-07T08:14:43;12.10;;;5.03;;
422;SDS011;198;48.752;9.180;2022-12-07T08:17:08;11.40;;;6.00;;
422;SDS011;198;48.752;9.180;2022-12-07T08:19:34;11.83;;;5.20;;
422;SDS011;198;48.752;9.180;2022-12-07T08:21:59;13.83;;;5.13;;
422;SDS011;198;48.752;9.180;2022-12-07T08:24:25;10.20;;;4.67;;
422;SDS011;198;48.752;9.180;2022-12-07T08:26:51;24.47;;;6.13;;
422;SDS011;198;48.752;9.180;2022-12-07T08:29:16;10.87;;;5.50;;
422;SDS011;198;48.752;9.180;2022-12-07T08:31:42;10.30;;;5.27;;
422;SDS011;198;48.752;9.180;2022-12-07T08:34:09;12.10;;;5.50;;
422;SDS011;198;48.752;9.180;2022-12-07T08:36:35;17.40;;;6.03;;
422;SDS011;198;48.752;9.180;2022-12-07T08:39:01;13.07;;;6.23;;
422;SDS011;198;48.752;9.180;2022-12-07T08:41:27;14.10;;;6.30;;
422;SDS011;198;48.752;9.180;2022-12-07T08:43:52;15.13;;;5.93;;
422;SDS011;198;48.752;9.180;2022-12-07T08:46:21;15.27;;;6.20;;
422;SDS011;198;48.752;9.180;2022-12-07T08:51:23;23.63;;;4.87;;
422;SDS011;198;48.752;9.180;2022-12-07T08:53:49;10.23;;;5.10;;
422;SDS011;198;48.752;9.180;2022-12-07T08:56:17;9.93;;;5.00;;
422;SDS011;198;48.752;9.180;2022-12-07T08:58:43;11.70;;;5.13;;
422;SDS011;198;48.752;9.180;2022-12-07T09:01:09;15.77;;;4.97;;
422;SDS011;198;48.752;9.180;2022-12-07T09:03:34;12.20;;;4.90;;
422;SDS011;198;48.752;9.180;2022-12-07T09:06:00;15.20;;;4.30;;
422;SDS011;198;48.752;9.180;2022-12-07T09:08:45;9.47;;;3.83;;
422;SDS011;198;48.752;9.180;2022-12-07T09:11:15;9.10;;;4.03;;
422;SDS011;198;48.752;9.180;2022-12-07T09:13:40;7.40;;;4.03;;
422;SDS011;198;48.752;9.180;2022-12-07T09:16:06;12.50;;;5.03;;
422;SDS011;198;48.752;9.180;2022-12-07T09:18:31;7.70;;;3.73;;
422;SDS011;198;48.752;9.180;2022-12-07T09:20:57;8.80;;;4.10;;
422;SDS011;198;48.752;9.180;2022-12-07T09:23:23;7.60;;;3.33;;
422;SDS011;198;48.752;9.180;2022-12-07T09:25:48;9.23;;;3.73;;
422;SDS011;198;48.752;9.180;2022-12-07T09:28:14;6.23;;;3.23;;
422;SDS011;198;48.752;9.180;2022-12-07T09:30:45;6.90;;;3.73;;
422;SDS011;198;48.752;9.180;2022-12-07T09:33:14;10.10;;;3.60;;
422;SDS011;198;48.752;9.180;2022-12-07T09:35:50;10.30;;;4.30;;
422;SDS011;198;48.752;9.180;2022-12-07T09:38:17;6.00;;;3.73;;
422;SDS011;198;48.752;9.180;2022-12-07T09:40:43;6.93;;;3.50;;
422;SDS011;198;48.752;9.180;2022-12-07T09:43:20;8.13;;;4.37;;
422;SDS011;198;48.752;9.180;2022-12-07T09:45:48;11.47;;;4.30;;
422;SDS011;198;48.752;9.180;2022-12-07T09:48:24;9.50;;;3.90;;
422;SDS011;198;48.752;9.180;2022-12-07T09:50:58;7.60;;;3.70;;
422;SDS011;198;48.752;9.180;2022-12-07T09:53:28;7.20;;;3.50;;
422;SDS011;198;48.752;9.180;2022-12-07T09:56:02;7.10;;;3.33;;
422;SDS011;198;48.752;9.180;2022-12-07T09:58:29;7.80;;;3.97;;
422;SDS011;198;48.752;9.180;2022-12-07T10:00:57;7.10;;;3.57;;
422;SDS011;198;48.752;9.180;2022-12-07T10:03:33;7.57;;;3.87;;
422;SDS011;198;48.752;9.180;2022-12-07T10:06:01;9.10;;;4.50;;
422;SDS011;198;48.752;9.180;2022-12-07T10:08:26;7.00;;;2.70;;
422;SDS011;198;48.752;9.180;2022-12-07T10:10:53;5.70;;;3.20;;
422;SDS011;198;48.752;9.180;2022-12-07T10:13:22;4.20;;;2.90;;
422;SDS011;198;48.752;9.180;2022-12-07T10:15:59;7.00;;;3.33;;
422;SDS011;198;48.752;9.180;2022-12-07T10:18:34;8.20;;;3.53;;
422;SDS011;198;48.752;9.180;2022-12-07T10:21:05;10.23;;;3.00;;
422;SDS011;198;48.752;9.180;2022-12-07T10:23:43;4.63;;;2.90;;
422;SDS011;198;48.752;9.180;2022-12-07T10:26:29;7.50;;;3.30;;
422;SDS011;198;48.752;9.180;2022-12-07T10:29:00;6.47;;;3.67;;
422;SDS011;198;48.752;9.180;2022-12-07T10:31:39;5.70;;;3.10;;
422;SDS011;198;48.752;9.180;2022-12-07T10:34:38;7.20;;;3.27;;
422;SDS011;198;48.752;9.180;2022-12-07T10:39:43;4.83;;;2.80;;
422;SDS011;198;48.752;9.180;2022-12-07T10:42:25;14.03;;;3.67;;
422;SDS011;198;48.752;9.180;2022-12-07T10:45:14;4.60;;;2.80;;
422;SDS011;198;48.752;9.180;2022-12-07T10:47:49;4.73;;;2.57;;
422;SDS011;198;48.752;9.180;2022-12-07T11:06:46;4.97;;;2.53;;
422;SDS011;198;48.752;9.180;2022-12-07T11:09:48;4.33;;;2.43;;
422;SDS011;198;48.752;9.180;2022-12-07T11:12:28;4.60;;;2.47;;
422;SDS011;198;48.752;9.180;2022-12-07T11:15:30;4.87;;;2.73;;
422;SDS011;198;48.752;9.180;2022-12-07T11:20:58;3.50;;;2.30;;
422;SDS011;198;48.752;9.180;2022-12-07T11:26:43;6.70;;;3.47;;
422;SDS011;198;48.752;9.180;2022-12-07T11:35:08;6.43;;;3.10;;
422;SDS011;198;48.752;9.180;2022-12-07T11:37:49;4.80;;;3.00;;
422;SDS011;198;48.752;9.180;2022-12-07T11:40:30;6.03;;;3.20;;
422;SDS011;198;48.752;9.180;2022-12-07T11:45:35;5.73;;;3.03;;
422;SDS011;198;48.752;9.180;2022-12-07T11:48:09;6.50;;;3.93;;
422;SDS011;198;48.752;9.180;2022-12-07T11:50:43;5.63;;;3.07;;
422;SDS011;198;48.752;9.180;2022-12-07T11:53:20;4.10;;;2.80;;
422;SDS011;198;48.752;9.180;2022-12-07T11:55:54;9.90;;;3.30;;
422;SDS011;198;48.752;9.180;2022-12-07T11:58:39;4.23;;;2.60;;
422;SDS011;198;48.752;9.180;2022-12-07T12:03:42;4.93;;;2.13;;
422;SDS011;198;48.752;9.180;2022-12-07T12:06:14;4.57;;;2.77;;
422;SDS011;198;48.752;9.180;2022-12-07T12:08:41;5.67;;;2.83;;
422;SDS011;198;48.752;9.180;2022-12-07T12:17:18;3.50;;;2.50;;
422;SDS011;198;48.752;9.180;2022-12-07T12:23:05;3.57;;;1.73;;
422;SDS011;198;48.752;9.180;2022-12-07T12:25:39;2.57;;;1.80;;
422;SDS011;198;48.752;9.180;2022-12-07T12:28:18;3.83;;;2.00;;
422;SDS011;198;48.752;9.180;2022-12-07T12:31:04;4.30;;;2.40;;
422;SDS011;198;48.752;9.180;2022-12-07T12:33:49;2.90;;;2.50;;
422;SDS011;198;48.752;9.180;2022-12-07T12:36:25;6.77;;;2.80;;
422;SDS011;198;48.752;9.180;2022-12-07T12:51:47;7.30;;;3.60;;
422;SDS011;198;48.752;9.180;2022-12-07T12:57:09;7.60;;;3.80;;
422;SDS011;198;48.752;9.180;2022-12-07T13:10:20;10.53;;;3.77;;
422;SDS011;198;48.752;9.180;2022-12-07T13:13:00;10.93;;;3.30;;
422;SDS011;198;48.752;9.180;2022-12-07T13:17:58;6.37;;;3.57;;
422;SDS011;198;48.752;9.180;2022-12-07T13:23:11;6.87;;;3.03;;
422;SDS011;198;48.752;9.180;2022-12-07T13:25:44;4.50;;;2.83;;
422;SDS011;198;48.752;9.180;2022-12-07T13:28:20;6.23;;;2.83;;
422;SDS011;198;48.752;9.180;2022-12-07T13:33:26;6.30;;;3.03;;
422;SDS011;198;48.752;9.180;2022-12-07T13:35:54;5.33;;;2.90;;
422;SDS011;198;48.752;9.180;2022-12-07T13:43:49;2.07;;;1.93;;
422;SDS011;198;48.752;9.180;2022-12-07T13:46:17;5.47;;;2.30;;
422;SDS011;198;48.752;9.180;2022-12-07T13:48:51;3.30;;;2.30;;
422;SDS011;198;48.752;9.180;2022-12-07T13:51:21;5.37;;;2.40;;
422;SDS011;198;48.752;9.180;2022-12-07T13:53:55;3.13;;;2.23;;
422;SDS011;198;48.752;9.180;2022-12-07T13:56:27;3.27;;;2.60;;
422;SDS011;198;48.752;9.180;2022-12-07T13:58:58;5.13;;;2.63;;
422;SDS011;198;48.752;9.180;2022-12-07T14:01:24;5.53;;;2.90;;
422;SDS011;198;48.752;9.180;2022-12-07T14:03:50;4.30;;;2.53;;
422;SDS011;198;48.752;9.180;2022-12-07T14:08:43;3.60;;;2.80;;
422;SDS011;198;48.752;9.180;2022-12-07T14:11:14;6.70;;;2.30;;
422;SDS011;198;48.752;9.180;2022-12-07T14:13:51;6.60;;;2.50;;
422;SDS011;198;48.752;9.180;2022-12-07T14:16:26;2.77;;;1.97;;
422;SDS011;198;48.752;9.180;2022-12-07T14:19:00;4.80;;;2.57;;
422;SDS011;198;48.752;9.180;2022-12-07T14:21:29;2.60;;;1.97;;
422;SDS011;198;48.752;9.180;2022-12-07T14:24:14;3.67;;;2.37;;
422;SDS011;198;48.752;9.180;2022-12-07T14:26:46;6.70;;;2.43;;
422;SDS011;198;48.752;9.180;2022-12-07T14:29:27;2.80;;;2.10;;
422;SDS011;198;48.752;9.180;2022-12-07T14:31:59;5.07;;;3.13;;
422;SDS011;198;48.752;9.180;2022-12-07T14:34:41;4.00;;;2.30;;
422;SDS011;198;48.752;9.180;2022-12-07T14:37:07;4.70;;;2.20;;
422;SDS011;198;48.752;9.180;2022-12-07T14:39:34;5.20;;;2.80;;
422;SDS011;198;48.752;9.180;2022-12-07T14:42:00;5.63;;;2.83;;
422;SDS011;198;48.752;9.180;2022-12-07T14:44:25;9.07;;;2.90;;
422;SDS011;198;48.752;9.180;2022-12-07T14:46:50;12.83;;;3.07;;
422;SDS011;198;48.752;9.180;2022-12-07T14:49:17;7.13;;;3.70;;
422;SDS011;198;48.752;9.180;2022-12-07T14:51:44;7.17;;;3.10;;
422;SDS011;198;48.752;9.180;2022-12-07T14:54:13;3.10;;;2.53;;
422;SDS011;198;48.752;9.180;2022-12-07T14:56:43;6.20;;;3.40;;
422;SDS011;198;48.752;9.180;2022-12-07T14:59:10;3.40;;;2.27;;
422;SDS011;198;48.752;9.180;2022-12-07T15:01:36;7.37;;;3.23;;
422;SDS011;198;48.752;9.180;2022-12-07T15:04:02;9.73;;;3.20;;
422;SDS011;198;48.752;9.180;2022-12-07T15:06:27;5.37;;;3.20;;
422;SDS011;198;48.752;9.180;2022-12-07T15:08:53;3.70;;;2.87;;
422;SDS011;198;48.752;9.180;2022-12-07T15:11:20;5.47;;;3.40;;
422;SDS011;198;48.752;9.180;2022-12-07T15:13:47;9.77;;;3.90;;
422;SDS011;198;48.752;9.180;2022-12-07T15:16:31;7.63;;;4.17;;
422;SDS011;198;48.752;9.180;2022-12-07T15:18:56;6.90;;;4.20;;
422;SDS011;198;48.752;9.180;2022-12-07T15:21:22;7.00;;;3.93;;
422;SDS011;198;48.752;9.180;2022-12-07T15:23:48;6.37;;;3.97;;
422;SDS011;198;48.752;9.180;2022-12-07T15:26:13;9.37;;;4.30;;
422;SDS011;198;48.752;9.180;2022-12-07T15:28:39;5.13;;;3.40;;
422;SDS011;198;48.752;9.180;2022-12-07T15:31:11;9.10;;;4.87;;
422;SDS011;198;48.752;9.180;2022-12-07T15:33:41;5.40;;;3.10;;
422;SDS011;198;48.752;9.180;2022-12-07T15:36:07;8.87;;;4.43;;
422;SDS011;198;48.752;9.180;2022-12-07T15:38:33;16.70;;;5.70;;
422;SDS011;198;48.752;9.180;2022-12-07T15:40:59;8.53;;;4.33;;
422;SDS011;198;48.752;9.180;2022-12-07T15:43:25;9.23;;;3.87;;
422;SDS011;198;48.752;9.180;2022-12-07T15:46:09;7.47;;;3.90;;
422;SDS011;198;48.752;9.180;2022-12-07T15:48:35;7.00;;;4.40;;
422;SDS011;198;48.752;9.180;2022-12-07T15:51:04;7.20;;;2.93;;
422;SDS011;198;48.752;9.180;2022-12-07T15:53:31;8.00;;;4.23;;
422;SDS011;198;48.752;9.180;2022-12-07T15:55:56;4.70;;;3.60;;
422;SDS011;198;48.752;9.180;2022-12-07T15:58:22;5.60;;;3.17;;
422;SDS011;198;48.752;9.180;2022-12-07T16:00:47;12.67;;;3.80;;
422;SDS011;198;48.752;9.180;2022-12-07T16:03:13;12.10;;;3.60;;
422;SDS011;198;48.752;9.180;2022-12-07T16:05:39;7.07;;;3.13;;
422;SDS011;198;48.752;9.180;2022-12-07T16:08:04;7.17;;;3.80;;
422;SDS011;198;48.752;9.180;2022-12-07T16:10:30;11.90;;;4.83;;
422;SDS011;198;48.752;9.180;2022-12-07T16:12:56;5.97;;;4.13;;
422;SDS011;198;48.752;9.180;2022-12-07T16:15:22;8.90;;;4.50;;
422;SDS011;198;48.752;9.180;2022-12-07T16:17:49;7.47;;;3.87;;
422;SDS011;198;48.752;9.180;2022-12-07T16:20:15;8.00;;;4.27;;
422;SDS011;198;48.752;9.180;2022-12-07T16:22:40;8.87;;;4.00;;
422;SDS011;198;48.752;9.180;2022-12-07T16:25:06;13.07;;;5.40;;
422;SDS011;198;48.752;9.180;2022-12-07T16:27:32;11.17;;;4.80;;
422;SDS011;198;48.752;9.180;2022-12-07T16:29:57;12.77;;;4.83;;
422;SDS011;198;48.752;9.180;2022-12-07T16:32:23;11.87;;;6.00;;
422;SDS011;198;48.752;9.180;2022-12-07T16:34:48;14.43;;;7.10;;
422;SDS011;198;48.752;9.180;2022-12-07T16:37:14;9.43;;;4.60;;
422;SDS011;198;48.752;9.180;2022-12-07T16:39:39;14.67;;;5.80;;
422;SDS011;198;48.752;9.180;2022-12-07T16:42:05;14.77;;;5.40;;
422;SDS011;198;48.752;9.180;2022-12-07T16:44:31;21.47;;;5.70;;
422;SDS011;198;48.752;9.180;2022-12-07T16:46:56;27.63;;;6.90;;
422;SDS011;198;48.752;9.180;2022-12-07T16:49:22;18.00;;;5.90;;
422;SDS011;198;48.752;9.180;2022-12-07T16:51:49;15.53;;;5.73;;
422;SDS011;198;48.752;9.180;2022-12-07T16:54:15;24.33;;;7.37;;
422;SDS011;198;48.752;9.180;2022-12-07T16:56:41;16.97;;;6.00;;
422;SDS011;198;48.752;9.180;2022-12-07T16:59:07;19.77;;;6.50;;
422;SDS011;198;48.752;9.180;2022-12-07T17:01:33;15.33;;;6.40;;
422;SDS011;198;48.752;9.180;2022-12-07T17:03:59;17.80;;;7.13;;
422;SDS011;198;48.752;9.180;2022-12-07T17:06:25;16.80;;;6.27;;
422;SDS011;198;48.752;9.180;2022-12-07T17:08:52;14.10;;;6.70;;
422;SDS011;198;48.752;9.180;2022-12-07T17:11:19;16.20;;;7.20;;
422;SDS011;198;48.752;9.180;2022-12-07T17:13:47;13.40;;;7.00;;
422;SDS011;198;48.752;9.180;2022-12-07T17:16:32;25.57;;;6.67;;
422;SDS011;198;48.752;9.180;2022-12-07T17:18:58;17.60;;;5.60;;
422;SDS011;198;48.752;9.180;2022-12-07T17:21:24;11.10;;;6.07;;
422;SDS011;198;48.752;9.180;2022-12-07T17:23:50;13.77;;;6.73;;
422;SDS011;198;48.752;9.180;2022-12-07T17:26:20;13.57;;;6.30;;
422;SDS011;198;48.752;9.180;2022-12-07T17:28:47;15.73;;;6.27;;
422;SDS011;198;48.752;9.180;2022-12-07T17:31:14;13.53;;;6.10;;
422;SDS011;198;48.752;9.180;2022-12-07T17:33:41;12.47;;;4.90;;
422;SDS011;198;48.752;9.180;2022-12-07T17:36:10;20.20;;;6.97;;
422;SDS011;198;48.752;9.180;2022-12-07T17:38:37;13.93;;;6.40;;
422;SDS011;198;48.752;9.180;2022-12-07T17:41:12;20.90;;;6.33;;
422;SDS011;198;48.752;9.180;2022-12-07T17:43:58;12.13;;;6.30;;
422;SDS011;198;48.752;9.180;2022-12-07T17:46:24;13.63;;;6.63;;
422;SDS011;198;48.752;9.180;2022-12-07T17:48:49;17.57;;;6.70;;